Mont-Joli, Canada
Current Conditions -  °F | °C
As of 2:00 AM on Thursday 23 Oct 2014 (Local Time) from CYYY Reporting Station
Few Clouds Few Clouds  
Wind Chill: 26°   Ceiling: Unl
Heat Index: 32°   Visibility: 30mi
Dew Point: 30°   Wind: 7mph
Humidity: 93%   Direction: 100°E
Pressure: 30.39"   Gusts: NA
Location:  48.59°N, 68.19°W
Report Text: CYYY 230600Z 10006KT 30SM FEW220 M00/M01 A3039 RMK CI1 SLP295
Loading
Personal Weather Stations






























Interactive Weather Map
Tropical Storm Tracking
New forecast layout! Learn more

10-Day Weather Forecast

Advertisements
Track Severe Weather on mobile